Time;durP1;ratioP1;P1;durP2;ratioP2;P2;SDS_P1;SDS_P2;PMS_P1;PMS_P2;Temp;Humidity;BMP_temperature;BMP_pressure;BME280_temperature;BME280_humidity;BME280_pressure;Samples;Min_cycle;Max_cycle;Signal;HPM_P1;HPM_P2
2021/03/09 00:00:11;;;;;;;24.80;18.23;;;5.10;86.90;;;;;;5071273;28;20068;-70
2021/03/09 00:02:37;;;;;;;25.10;17.80;;;5.10;86.70;;;;;;5071785;28;20055;-70
2021/03/09 00:05:03;;;;;;;24.97;19.20;;;5.10;86.70;;;;;;5070463;28;20295;-70
2021/03/09 00:07:29;;;;;;;24.57;18.33;;;5.10;87.00;;;;;;5071633;28;20063;-70
2021/03/09 00:09:54;;;;;;;24.50;18.97;;;5.10;86.90;;;;;;5071219;28;20299;-71
2021/03/09 00:12:21;;;;;;;25.27;19.77;;;5.10;87.20;;;;;;5070547;28;20140;-70
2021/03/09 00:14:46;;;;;;;23.87;18.53;;;5.10;87.00;;;;;;5071116;28;20051;-70
2021/03/09 00:17:12;;;;;;;25.70;19.00;;;5.10;87.10;;;;;;5070953;28;20307;-70
2021/03/09 00:19:38;;;;;;;24.27;19.10;;;5.10;87.40;;;;;;5070835;28;20047;-70
2021/03/09 00:22:03;;;;;;;26.57;19.87;;;5.10;87.20;;;;;;5071178;28;20097;-70
2021/03/09 00:24:29;;;;;;;24.10;18.07;;;5.10;86.90;;;;;;5071466;28;20405;-70
2021/03/09 00:26:55;;;;;;;26.00;20.00;;;5.10;87.00;;;;;;5070465;28;20520;-70
2021/03/09 00:29:20;;;;;;;25.43;19.73;;;5.20;87.20;;;;;;5071128;28;20041;-70
2021/03/09 00:31:46;;;;;;;26.73;19.43;;;5.20;87.30;;;;;;5070859;28;20551;-71
2021/03/09 00:34:12;;;;;;;26.53;19.67;;;5.20;87.20;;;;;;5070419;28;20082;-71
2021/03/09 00:36:37;;;;;;;24.47;19.57;;;5.20;87.30;;;;;;5071036;28;20052;-70
2021/03/09 00:39:03;;;;;;;26.57;20.73;;;5.30;87.20;;;;;;5070332;28;20060;-70
2021/03/09 00:41:29;;;;;;;24.83;20.03;;;5.20;87.10;;;;;;5070395;28;20052;-70
2021/03/09 00:43:55;;;;;;;28.93;21.57;;;5.20;87.20;;;;;;5070822;28;20291;-70
2021/03/09 00:46:20;;;;;;;29.33;20.97;;;5.20;87.30;;;;;;5070221;28;20139;-70
2021/03/09 00:48:46;;;;;;;30.60;22.10;;;5.20;87.40;;;;;;5071126;28;20075;-70
2021/03/09 00:51:11;;;;;;;25.50;20.07;;;5.20;87.20;;;;;;5070757;28;20420;-70
2021/03/09 00:53:37;;;;;;;28.97;20.67;;;5.20;87.40;;;;;;5070381;28;20044;-70
2021/03/09 00:56:04;;;;;;;30.30;21.77;;;5.20;87.50;;;;;;5070711;28;20096;-70
2021/03/09 00:58:30;;;;;;;28.80;21.07;;;5.20;87.50;;;;;;5074020;28;20294;-70
2021/03/09 01:00:56;;;;;;;29.90;22.27;;;5.20;87.40;;;;;;5073673;28;20048;-70
2021/03/09 01:03:23;;;;;;;26.97;19.67;;;5.20;87.50;;;;;;5074355;28;20529;-71
2021/03/09 01:05:48;;;;;;;29.53;20.97;;;5.20;87.50;;;;;;5074522;28;20299;-70
2021/03/09 01:08:14;;;;;;;29.23;21.93;;;5.20;87.50;;;;;;5073739;28;20303;-71
2021/03/09 01:10:41;;;;;;;28.70;22.20;;;5.20;87.50;;;;;;5074212;28;20090;-70
2021/03/09 01:13:07;;;;;;;29.00;21.23;;;5.20;87.50;;;;;;5074313;28;20362;-70
2021/03/09 01:15:33;;;;;;;30.53;21.37;;;5.20;87.80;;;;;;5073905;28;20480;-70
2021/03/09 01:17:58;;;;;;;28.87;21.43;;;5.20;87.80;;;;;;5074247;28;20390;-70
2021/03/09 01:20:24;;;;;;;30.27;21.90;;;5.20;87.80;;;;;;5074021;28;20049;-70
2021/03/09 01:22:50;;;;;;;26.20;19.60;;;5.20;87.90;;;;;;5073401;28;20098;-70
2021/03/09 01:25:16;;;;;;;30.27;21.67;;;5.10;87.70;;;;;;5073931;28;20311;-70
2021/03/09 01:27:41;;;;;;;30.90;22.47;;;5.10;87.80;;;;;;5073955;28;20500;-70
2021/03/09 01:30:09;;;;;;;28.80;21.20;;;5.10;88.10;;;;;;5073215;28;20060;-70
2021/03/09 01:32:36;;;;;;;28.77;22.07;;;5.10;88.20;;;;;;5074489;28;20049;-70
2021/03/09 01:35:03;;;;;;;30.57;22.00;;;5.10;88.10;;;;;;5073759;28;20705;-71
2021/03/09 01:37:29;;;;;;;31.53;22.17;;;5.00;88.30;;;;;;5073357;28;20321;-70
2021/03/09 01:39:54;;;;;;;28.00;22.07;;;5.00;88.30;;;;;;5073722;28;20733;-71
2021/03/09 01:42:20;;;;;;;29.87;21.83;;;5.10;88.60;;;;;;5073621;28;20072;-70
2021/03/09 01:44:46;;;;;;;28.50;22.03;;;5.10;88.30;;;;;;5072884;28;20143;-70
2021/03/09 01:47:12;;;;;;;29.10;21.67;;;5.00;88.20;;;;;;5073905;28;20056;-70
2021/03/09 01:49:41;;;;;;;24.27;18.47;;;5.00;88.50;;;;;;5072974;28;20135;-70
2021/03/09 01:52:10;;;;;;;31.13;21.57;;;5.00;88.70;;;;;;5073752;28;20381;-70
2021/03/09 01:54:38;;;;;;;28.53;20.73;;;5.10;88.80;;;;;;5073790;28;20550;-70
2021/03/09 01:57:06;;;;;;;28.93;21.80;;;5.10;88.60;;;;;;5072611;28;20315;-71
2021/03/09 01:59:46;;;;;;;29.37;20.63;;;5.10;88.80;;;;;;5073502;28;20287;-70
2021/03/09 02:02:12;;;;;;;28.63;21.10;;;5.10;88.70;;;;;;5073664;28;20495;-70
2021/03/09 02:04:38;;;;;;;30.53;21.23;;;5.10;88.80;;;;;;5072974;28;20295;-70
2021/03/09 02:07:03;;;;;;;28.20;21.17;;;5.10;88.80;;;;;;5073164;28;20048;-70
2021/03/09 02:09:30;;;;;;;31.87;21.50;;;5.10;88.70;;;;;;5073215;28;20131;-71
2021/03/09 02:12:02;;;;;;;28.50;20.00;;;5.10;88.70;;;;;;5072681;28;20076;-70
2021/03/09 02:14:43;;;;;;;26.63;20.63;;;5.10;88.90;;;;;;5073624;28;20309;-70
2021/03/09 02:17:28;;;;;;;25.27;18.70;;;5.10;88.90;;;;;;5073159;28;20860;-70
2021/03/09 02:20:00;;;;;;;27.60;20.03;;;5.20;88.90;;;;;;5072206;28;20294;-70
2021/03/09 02:22:34;;;;;;;25.67;18.95;;;5.20;88.80;;;;;;5073208;28;20385;-70
2021/03/09 02:25:30;;;;;;;26.57;19.20;;;5.30;88.70;;;;;;5072198;28;20051;-70
2021/03/09 02:28:27;;;;;;;26.00;18.43;;;5.30;88.70;;;;;;5072978;28;20395;-70
2021/03/09 02:30:55;;;;;;;22.20;18.07;;;5.30;88.80;;;;;;5072995;28;20305;-70
2021/03/09 02:33:28;;;;;;;25.23;18.43;;;5.40;88.50;;;;;;5072026;28;20755;-70
2021/03/09 02:35:59;;;;;;;23.73;18.10;;;5.30;88.60;;;;;;5072667;28;20831;-70
2021/03/09 02:38:28;;;;;;;25.58;18.38;;;5.30;88.50;;;;;;5072558;28;20852;-69
2021/03/09 02:40:57;;;;;;;22.23;15.80;;;5.40;88.60;;;;;;5071751;28;20076;-69
2021/03/09 02:43:25;;;;;;;21.63;16.27;;;5.30;88.70;;;;;;5072761;28;20397;-70
2021/03/09 02:45:52;;;;;;;20.30;16.77;;;5.40;88.80;;;;;;5072587;28;20323;-70
2021/03/09 02:48:23;;;;;;;21.20;17.10;;;5.40;88.80;;;;;;5072082;28;20303;-70
2021/03/09 02:50:51;;;;;;;21.58;15.77;;;5.40;88.80;;;;;;5072403;28;20295;-70
2021/03/09 02:53:18;;;;;;;20.70;15.30;;;5.40;88.70;;;;;;5071606;28;20459;-70
2021/03/09 02:55:46;;;;;;;23.60;16.57;;;5.40;88.60;;;;;;5072379;28;20310;-70
2021/03/09 02:58:18;;;;;;;22.27;15.93;;;5.40;88.80;;;;;;5072461;28;20302;-70
2021/03/09 03:00:44;;;;;;;21.67;16.75;;;5.40;88.80;;;;;;5071635;28;20314;-71
2021/03/09 03:03:15;;;;;;;23.77;16.80;;;5.30;88.70;;;;;;5072252;28;20048;-70
2021/03/09 03:05:42;;;;;;;19.53;15.07;;;5.30;89.00;;;;;;5072205;28;20295;-71
2021/03/09 03:08:09;;;;;;;21.10;16.33;;;5.30;89.30;;;;;;5071396;28;20789;-70
2021/03/09 03:10:36;;;;;;;21.87;15.07;;;5.30;89.50;;;;;;5072542;28;20291;-70
2021/03/09 03:13:06;;;;;;;23.63;16.30;;;5.30;89.20;;;;;;5071818;28;20327;-70
2021/03/09 03:15:33;;;;;;;19.17;15.87;;;5.30;89.40;;;;;;5071541;28;20334;-70
2021/03/09 03:18:00;;;;;;;21.47;15.83;;;5.30;89.50;;;;;;5071766;28;20324;-70
2021/03/09 03:20:27;;;;;;;23.63;17.07;;;5.30;89.50;;;;;;5071138;28;20320;-70
2021/03/09 03:22:54;;;;;;;21.70;15.90;;;5.30;89.30;;;;;;5071263;28;20306;-70
2021/03/09 03:25:21;;;;;;;19.77;15.17;;;5.30;89.40;;;;;;5071899;28;20299;-70
2021/03/09 03:27:49;;;;;;;22.43;16.40;;;5.30;89.40;;;;;;5071632;28;20771;-70
2021/03/09 03:30:16;;;;;;;20.83;15.43;;;5.40;89.50;;;;;;5071098;28;20330;-70
2021/03/09 03:32:43;;;;;;;21.47;14.70;;;5.40;89.40;;;;;;5071503;28;20294;-70
2021/03/09 03:35:11;;;;;;;20.67;15.60;;;5.40;89.50;;;;;;5071057;28;20310;-70
2021/03/09 03:37:38;;;;;;;20.27;14.93;;;5.40;89.50;;;;;;5071936;28;20389;-70
2021/03/09 03:40:09;;;;;;;20.77;15.83;;;5.40;89.50;;;;;;5071198;28;20295;-70
2021/03/09 03:42:36;;;;;;;22.50;16.55;;;5.30;89.50;;;;;;5071327;28;20313;-70
2021/03/09 03:45:03;;;;;;;19.53;15.53;;;5.30;89.60;;;;;;5071363;28;20044;-71
2021/03/09 03:47:29;;;;;;;21.87;16.13;;;5.30;89.50;;;;;;5071672;28;20315;-70
2021/03/09 03:49:55;;;;;;;21.63;15.83;;;5.30;89.60;;;;;;5070632;28;20291;-70
2021/03/09 03:52:40;;;;;;;20.33;15.50;;;5.30;89.80;;;;;;5071415;28;20045;-70
2021/03/09 03:55:20;;;;;;;19.77;14.97;;;5.30;89.80;;;;;;5071373;28;20055;-71
2021/03/09 03:57:50;;;;;;;21.10;14.93;;;5.40;89.80;;;;;;5070542;28;20286;-70
2021/03/09 04:00:19;;;;;;;20.20;14.37;;;5.40;89.70;;;;;;5071535;28;20364;-70
2021/03/09 04:02:47;;;;;;;19.50;14.80;;;5.40;89.60;;;;;;5071212;28;20795;-70
2021/03/09 04:05:14;;;;;;;20.30;15.90;;;5.40;89.70;;;;;;5070526;28;20733;-70
2021/03/09 04:07:40;;;;;;;21.90;16.83;;;5.40;89.70;;;;;;5071237;28;20295;-70
2021/03/09 04:10:06;;;;;;;21.23;14.90;;;5.40;89.80;;;;;;5071454;28;20295;-70
2021/03/09 04:12:33;;;;;;;18.13;15.03;;;5.30;90.00;;;;;;5070521;28;20303;-70
2021/03/09 04:15:00;;;;;;;20.17;15.47;;;5.40;90.00;;;;;;5071087;28;20372;-70
2021/03/09 04:17:26;;;;;;;19.97;15.43;;;5.40;90.10;;;;;;5070197;28;20864;-70
2021/03/09 04:19:54;;;;;;;22.20;15.87;;;5.40;90.00;;;;;;5071129;28;20306;-70
2021/03/09 04:22:21;;;;;;;21.50;15.30;;;5.50;90.00;;;;;;5071165;28;20344;-71
2021/03/09 04:24:49;;;;;;;20.93;15.03;;;5.50;90.00;;;;;;5070193;28;20302;-71
2021/03/09 04:27:21;;;;;;;18.77;14.83;;;5.50;90.00;;;;;;5071227;28;20298;-70
2021/03/09 04:29:54;;;;;;;18.80;14.50;;;5.50;90.00;;;;;;5071103;28;20299;-71
2021/03/09 04:32:20;;;;;;;19.13;14.23;;;5.50;90.00;;;;;;5073235;28;20301;-71
2021/03/09 04:34:47;;;;;;;17.43;13.73;;;5.50;90.00;;;;;;5075178;28;20389;-71
2021/03/09 04:37:14;;;;;;;19.13;15.57;;;5.60;90.00;;;;;;5074872;28;20448;-70
2021/03/09 04:39:43;;;;;;;19.30;14.90;;;5.60;90.00;;;;;;5073964;28;20302;-70
2021/03/09 04:42:10;;;;;;;18.43;14.33;;;5.60;90.10;;;;;;5074812;28;20873;-71
2021/03/09 04:44:36;;;;;;;19.67;15.00;;;5.60;90.00;;;;;;5075381;28;20295;-70
2021/03/09 04:47:03;;;;;;;20.27;15.73;;;5.60;90.00;;;;;;5073851;28;20306;-71
2021/03/09 04:49:34;;;;;;;21.07;15.43;;;5.70;90.00;;;;;;5075149;28;20294;-70
2021/03/09 04:52:03;;;;;;;24.70;16.50;;;5.70;90.00;;;;;;5074431;28;20648;-71
2021/03/09 04:54:29;;;;;;;15.20;13.37;;;5.70;89.90;;;;;;5074407;28;20299;-70
2021/03/09 04:56:54;;;;;;;19.63;15.17;;;5.70;90.20;;;;;;5074694;28;20866;-71
2021/03/09 04:59:20;;;;;;;19.47;15.03;;;5.70;90.00;;;;;;5074534;28;20090;-71
2021/03/09 05:01:46;;;;;;;21.33;16.13;;;5.70;89.90;;;;;;5073933;28;20049;-70
2021/03/09 05:04:12;;;;;;;19.73;15.77;;;5.70;90.00;;;;;;5074647;28;20307;-71
2021/03/09 05:06:38;;;;;;;19.27;15.87;;;5.70;89.80;;;;;;5072561;28;20040;-70
2021/03/09 05:09:04;;;;;;;18.87;15.70;;;5.70;90.00;;;;;;5074472;28;20112;-71
2021/03/09 05:11:31;;;;;;;22.10;16.50;;;5.70;89.80;;;;;;5074778;28;20045;-70
2021/03/09 05:13:57;;;;;;;18.80;15.40;;;5.70;89.90;;;;;;5073609;28;20302;-71
2021/03/09 05:16:24;;;;;;;23.00;15.60;;;5.70;90.30;;;;;;5073919;28;20802;-71
2021/03/09 05:18:50;;;;;;;19.53;15.17;;;5.70;90.00;;;;;;5073898;28;20805;-70
2021/03/09 05:21:16;;;;;;;21.87;17.27;;;5.70;90.00;;;;;;5073428;28;20306;-71
2021/03/09 05:23:42;;;;;;;20.27;15.87;;;5.70;90.00;;;;;;5072655;28;20044;-70
2021/03/09 05:26:08;;;;;;;21.23;15.90;;;5.80;90.00;;;;;;5073309;28;20771;-70
2021/03/09 05:28:34;;;;;;;21.77;16.57;;;5.80;90.00;;;;;;5073548;28;20327;-70
2021/03/09 05:31:01;;;;;;;23.30;17.03;;;5.80;90.00;;;;;;5073799;28;20393;-70
2021/03/09 05:33:26;;;;;;;22.50;17.17;;;5.80;90.00;;;;;;5073562;28;20386;-70
2021/03/09 05:35:52;;;;;;;22.67;16.87;;;5.80;90.00;;;;;;5072977;28;20311;-71
2021/03/09 05:38:18;;;;;;;19.70;16.27;;;5.80;90.00;;;;;;5073599;28;20051;-71
2021/03/09 05:40:44;;;;;;;22.70;16.97;;;5.80;90.10;;;;;;5070442;28;20534;-71
2021/03/09 05:43:11;;;;;;;22.87;17.77;;;5.70;90.00;;;;;;5071161;28;20302;-71
2021/03/09 05:45:37;;;;;;;26.07;19.03;;;5.70;90.10;;;;;;5072594;28;20904;-71
2021/03/09 05:48:03;;;;;;;22.00;16.97;;;5.70;90.10;;;;;;5071824;28;20400;-71
2021/03/09 05:50:29;;;;;;;27.20;19.33;;;5.80;90.20;;;;;;5071619;28;20403;-71
2021/03/09 05:52:55;;;;;;;23.17;18.07;;;5.80;90.20;;;;;;5071245;28;20353;-71
2021/03/09 05:55:21;;;;;;;22.17;17.00;;;5.70;90.10;;;;;;5072660;28;20074;-71
2021/03/09 05:57:48;;;;;;;23.90;17.57;;;5.80;90.10;;;;;;5071737;28;20040;-71
2021/03/09 06:00:14;;;;;;;24.73;18.60;;;5.80;90.10;;;;;;5072341;28;20303;-71
2021/03/09 06:02:41;;;;;;;26.00;19.50;;;5.80;90.10;;;;;;5072303;28;20299;-71
2021/03/09 06:05:09;;;;;;;23.70;19.43;;;5.80;90.10;;;;;;5071452;28;20287;-71
2021/03/09 06:07:35;;;;;;;29.97;19.37;;;5.80;90.20;;;;;;5072830;28;20310;-71
2021/03/09 06:10:01;;;;;;;26.37;17.47;;;5.90;90.20;;;;;;5071466;28;20307;-71
2021/03/09 06:12:29;;;;;;;31.17;20.70;;;5.90;90.20;;;;;;5072592;28;20323;-71
2021/03/09 06:15:01;;;;;;;24.13;19.50;;;5.90;90.20;;;;;;5072192;28;20665;-71
2021/03/09 06:17:35;;;;;;;28.57;20.30;;;5.90;90.20;;;;;;5071450;28;20045;-71
2021/03/09 06:20:00;;;;;;;23.73;18.73;;;5.90;90.20;;;;;;5072315;28;20290;-71
2021/03/09 06:22:40;;;;;;;27.53;19.57;;;6.00;90.20;;;;;;5072180;28;20382;-71
2021/03/09 06:25:09;;;;;;;30.47;20.80;;;6.00;90.20;;;;;;5071263;28;20052;-71
2021/03/09 06:27:38;;;;;;;30.07;21.30;;;6.00;90.20;;;;;;5072028;28;20291;-71
2021/03/09 06:30:08;;;;;;;27.90;20.30;;;6.00;90.20;;;;;;5072089;28;20303;-71
2021/03/09 06:32:40;;;;;;;26.33;19.10;;;6.00;90.30;;;;;;5071411;28;20287;-71
2021/03/09 06:35:05;;;;;;;;;;;6.00;90.30;;;;;;5072204;28;20302;-71
2021/03/09 06:37:31;;;;;;;28.23;18.50;;;6.00;90.30;;;;;;5071966;28;19928;-71
2021/03/09 06:39:58;;;;;;;31.40;20.90;;;6.10;90.30;;;;;;5052767;28;530294;-71
2021/03/09 06:42:25;;;;;;;38.10;22.37;;;6.10;90.20;;;;;;5072474;28;20555;-71
2021/03/09 06:44:55;;;;;;;38.87;22.10;;;6.20;90.20;;;;;;5072393;28;20781;-71
2021/03/09 06:47:49;;;;;;;40.07;23.80;;;6.20;90.30;;;;;;5071699;28;20311;-71
2021/03/09 06:50:20;;;;;;;30.73;19.70;;;6.20;90.30;;;;;;5072448;28;20386;-71
2021/03/09 06:53:01;;;;;;;44.75;21.77;;;6.20;90.30;;;;;;5071763;28;20701;-72
2021/03/09 06:55:31;;;;;;;29.60;17.37;;;6.10;90.20;;;;;;5071871;28;20098;-71
2021/03/09 06:58:09;;;;;;;62.83;26.37;;;6.10;90.30;;;;;;5072267;28;20303;-71
2021/03/09 07:00:35;;;;;;;59.87;23.80;;;6.10;90.60;;;;;;5071924;28;20377;-71
2021/03/09 07:03:01;;;;;;;45.67;21.47;;;6.10;90.60;;;;;;5072212;28;20298;-71
2021/03/09 07:05:27;;;;;;;35.37;18.87;;;6.10;90.60;;;;;;5072426;28;20838;-69
2021/03/09 07:07:52;;;;;;;45.33;21.80;;;6.20;90.60;;;;;;5071565;28;20412;-72
2021/03/09 07:10:19;;;;;;;32.40;20.07;;;6.20;90.60;;;;;;5072087;28;20051;-71
2021/03/09 07:12:47;;;;;;;54.20;22.83;;;6.20;90.50;;;;;;5071962;28;20049;-72
2021/03/09 07:15:19;;;;;;;53.70;23.57;;;6.30;90.50;;;;;;5071068;28;20465;-72
2021/03/09 07:17:50;;;;;;;51.00;20.60;;;6.30;90.50;;;;;;5071331;28;20837;-70
2021/03/09 07:20:17;;;;;;;47.67;22.50;;;6.30;90.50;;;;;;5070930;28;20302;-71
2021/03/09 07:22:44;;;;;;;101.47;27.13;;;6.30;90.50;;;;;;5071730;28;20059;-72
2021/03/09 07:25:17;;;;;;;82.97;23.57;;;6.30;90.60;;;;;;5071661;28;20797;-72
2021/03/09 07:28:03;;;;;;;133.00;29.03;;;6.40;90.70;;;;;;5070924;28;20794;-71
2021/03/09 07:30:38;;;;;;;85.27;22.97;;;6.40;90.70;;;;;;5072251;28;20293;-72
2021/03/09 07:33:04;;;;;;;204.63;29.80;;;6.50;90.60;;;;;;5071501;28;20362;-71
2021/03/09 07:35:30;;;;;;;124.47;28.40;;;6.50;90.60;;;;;;5071461;28;20283;-72
2021/03/09 07:37:57;;;;;;;124.73;29.80;;;6.50;90.60;;;;;;5071549;28;20094;-72
2021/03/09 07:40:26;;;;;;;142.27;29.77;;;6.50;90.70;;;;;;5071372;28;20076;-72
2021/03/09 07:42:52;;;;;;;148.47;31.13;;;6.50;90.70;;;;;;5070564;28;20295;-72
2021/03/09 07:45:20;;;;;;;192.00;31.47;;;6.50;90.80;;;;;;5071430;28;20294;-72
2021/03/09 07:47:51;;;;;;;89.80;30.13;;;6.50;90.90;;;;;;5071458;28;20048;-72
2021/03/09 07:50:19;;;;;;;193.13;30.67;;;6.50;90.90;;;;;;5070544;28;20291;-72
2021/03/09 07:53:03;;;;;;;169.50;31.37;;;6.50;90.90;;;;;;5071410;28;20072;-71
2021/03/09 07:55:29;;;;;;;177.37;31.63;;;6.50;90.90;;;;;;5070964;28;20729;-71
2021/03/09 07:58:15;;;;;;;169.13;31.60;;;6.50;90.90;;;;;;5070636;28;20315;-72
2021/03/09 08:00:53;;;;;;;170.40;30.13;;;6.50;91.00;;;;;;5069855;28;20301;-72
2021/03/09 08:03:30;;;;;;;141.93;29.37;;;6.50;90.90;;;;;;5069275;28;20677;-72
2021/03/09 08:05:58;;;;;;;261.30;34.97;;;6.50;90.90;;;;;;5070854;28;20291;-72
2021/03/09 08:08:44;;;;;;;108.23;27.73;;;6.50;90.90;;;;;;5071431;28;20303;-72
2021/03/09 08:11:19;;;;;;;133.07;29.47;;;6.40;91.10;;;;;;5070277;28;20306;-72
2021/03/09 08:13:47;;;;;;;184.20;33.53;;;6.40;91.10;;;;;;5071239;28;20299;-72
2021/03/09 08:16:23;;;;;;;248.90;33.53;;;6.40;91.10;;;;;;5070811;28;20314;-72
2021/03/09 08:18:57;;;;;;;162.23;30.37;;;6.40;91.10;;;;;;5070570;28;20301;-71
2021/03/09 08:21:55;;;;;;;360.57;39.50;;;6.30;91.20;;;;;;5071289;28;20310;-72
2021/03/09 08:24:45;;;;;;;150.13;31.13;;;6.40;91.30;;;;;;5070400;28;20377;-72
2021/03/09 08:27:29;;;;;;;314.37;35.33;;;6.40;91.30;;;;;;5070889;28;20343;-72
2021/03/09 08:30:17;;;;;;;198.90;33.20;;;6.40;91.20;;;;;;5071135;28;20716;-72
2021/03/09 08:32:42;;;;;;;182.17;33.23;;;6.40;91.20;;;;;;5070224;28;20310;-72
2021/03/09 08:35:11;;;;;;;273.77;39.03;;;6.40;91.30;;;;;;5071146;28;20651;-72
2021/03/09 08:37:37;;;;;;;229.67;36.07;;;6.40;91.30;;;;;;5070557;28;20060;-72
2021/03/09 08:40:07;;;;;;;155.60;32.83;;;6.50;91.30;;;;;;5070733;28;20347;-72
2021/03/09 08:43:11;;;;;;;188.50;33.30;;;6.50;91.30;;;;;;5070586;28;20334;-72
2021/03/09 08:45:39;;;;;;;147.50;32.07;;;6.50;91.50;;;;;;5050321;28;20694;-72
2021/03/09 08:48:05;;;;;;;129.93;31.23;;;6.60;91.40;;;;;;5050962;28;20329;-71
2021/03/09 08:50:39;;;;;;;202.90;34.07;;;6.60;91.50;;;;;;5051134;28;20330;-71
2021/03/09 08:53:05;;;;;;;153.93;35.27;;;6.60;91.40;;;;;;5050002;28;20300;-71
2021/03/09 08:55:31;;;;;;;95.00;30.33;;;6.60;91.30;;;;;;5050756;28;20784;-72
2021/03/09 08:58:04;;;;;;;133.53;31.30;;;6.70;91.40;;;;;;5050627;28;20322;-71
2021/03/09 09:00:30;;;;;;;151.33;31.77;;;6.60;91.40;;;;;;5050507;28;20061;-71
2021/03/09 09:02:55;;;;;;;130.17;31.87;;;6.70;91.30;;;;;;5050673;28;20337;-72
2021/03/09 09:05:28;;;;;;;72.00;28.40;;;6.70;91.40;;;;;;5050790;28;20057;-73
2021/03/09 09:07:54;;;;;;;91.77;28.57;;;6.70;91.40;;;;;;5049815;28;20299;-72
2021/03/09 09:10:22;;;;;;;127.23;32.57;;;6.60;91.40;;;;;;5050205;28;20833;-71
2021/03/09 09:12:52;;;;;;;121.90;30.40;;;6.50;91.50;;;;;;5049599;28;20095;-72
2021/03/09 09:15:30;;;;;;;88.40;32.20;;;6.50;91.50;;;;;;5049959;28;20343;-71
2021/03/09 09:17:55;;;;;;;62.80;30.33;;;6.50;91.60;;;;;;5050815;28;20319;-72
2021/03/09 09:20:27;;;;;;;53.43;32.20;;;6.40;91.60;;;;;;5053435;28;21092;-72
2021/03/09 09:22:53;;;;;;;53.80;29.33;;;6.40;91.70;;;;;;5053976;28;20417;-72
2021/03/09 09:25:22;;;;;;;54.77;29.63;;;6.30;91.70;;;;;;5054257;28;20048;-71
2021/03/09 09:27:51;;;;;;;50.80;30.63;;;6.30;91.70;;;;;;5053165;28;20780;-73
2021/03/09 09:30:22;;;;;;;53.67;31.67;;;6.30;91.70;;;;;;5053939;28;20375;-73
2021/03/09 09:32:50;;;;;;;49.95;28.48;;;6.30;91.60;;;;;;5053668;28;20827;-72
2021/03/09 09:35:17;;;;;;;43.47;26.47;;;6.30;91.70;;;;;;5053047;28;20534;-73
2021/03/09 09:37:48;;;;;;;43.87;27.17;;;6.30;91.70;;;;;;5053976;28;20345;-72
2021/03/09 09:40:15;;;;;;;48.20;27.13;;;6.20;91.80;;;;;;5053468;28;20300;-73
2021/03/09 09:42:41;;;;;;;61.17;30.03;;;6.20;91.70;;;;;;5053184;28;20350;-73
2021/03/09 09:45:07;;;;;;;51.63;28.67;;;6.20;91.70;;;;;;5053711;28;20327;-73
2021/03/09 09:47:33;;;;;;;55.07;28.90;;;6.20;91.90;;;;;;5053785;28;20049;-73
2021/03/09 09:50:02;;;;;;;51.57;29.13;;;6.10;92.00;;;;;;5052648;28;20871;-73
2021/03/09 09:52:27;;;;;;;63.80;29.73;;;6.10;91.80;;;;;;5053842;28;20299;-73
2021/03/09 09:54:59;;;;;;;52.07;28.07;;;6.00;91.90;;;;;;5053670;28;20304;-73
2021/03/09 09:57:25;;;;;;;50.50;27.07;;;6.10;92.00;;;;;;5053551;28;20052;-75
2021/03/09 09:59:50;;;;;;;48.67;26.63;;;6.10;91.90;;;;;;5053367;28;20296;-74
2021/03/09 10:02:23;;;;;;;43.67;26.10;;;6.10;91.90;;;;;;5052666;28;20765;-74
2021/03/09 10:04:51;;;;;;;52.37;27.73;;;6.10;91.80;;;;;;5053625;28;20128;-74
2021/03/09 10:07:20;;;;;;;44.10;26.90;;;6.10;91.90;;;;;;5053437;28;20307;-72
2021/03/09 10:10:07;;;;;;;43.03;26.27;;;6.10;92.00;;;;;;5052684;28;20307;-73
2021/03/09 10:12:39;;;;;;;42.37;26.00;;;6.10;91.90;;;;;;5053549;28;20299;-74
2021/03/09 10:15:08;;;;;;;45.40;26.37;;;6.10;91.80;;;;;;5065053;28;20299;-75
2021/03/09 10:17:35;;;;;;;37.10;24.60;;;6.10;91.90;;;;;;5071930;28;20318;-75
2021/03/09 10:20:03;;;;;;;39.80;24.70;;;6.10;91.80;;;;;;5073025;28;20301;-77
2021/03/09 10:22:28;;;;;;;38.43;26.17;;;6.00;91.70;;;;;;5072784;28;20730;-73
2021/03/09 10:25:08;;;;;;;33.73;23.17;;;6.00;91.80;;;;;;5071941;28;20326;-74
2021/03/09 10:27:34;;;;;;;35.23;23.10;;;6.00;91.80;;;;;;5067531;28;20052;-75
2021/03/09 10:30:00;;;;;;;34.37;25.10;;;6.00;91.70;;;;;;5072507;28;20490;-75
2021/03/09 10:32:26;;;;;;;35.87;23.50;;;6.00;91.60;;;;;;5071803;28;20044;-73
2021/03/09 10:34:53;;;;;;;30.53;20.83;;;6.00;91.70;;;;;;5072955;28;20293;-73
2021/03/09 10:37:31;;;;;;;32.13;22.57;;;6.00;91.60;;;;;;5071892;28;20419;-74
2021/03/09 10:40:15;;;;;;;28.87;22.23;;;6.00;91.60;;;;;;5072073;28;20309;-74
2021/03/09 10:42:48;;;;;;;32.07;21.97;;;6.00;91.60;;;;;;5071276;28;20714;-74
2021/03/09 10:45:19;;;;;;;32.13;22.13;;;6.00;91.60;;;;;;5071972;28;20306;-74
2021/03/09 10:47:49;;;;;;;31.98;21.42;;;5.90;91.50;;;;;;5072581;28;20381;-74
2021/03/09 10:50:16;;;;;;;31.13;21.90;;;5.90;91.50;;;;;;5072349;28;20408;-74
2021/03/09 10:52:41;;;;;;;35.77;24.37;;;5.90;91.50;;;;;;5071861;28;20297;-74
2021/03/09 10:55:07;;;;;;;37.97;24.77;;;5.90;91.50;;;;;;5072311;28;20394;-74
2021/03/09 10:57:33;;;;;;;46.50;27.43;;;5.90;91.40;;;;;;5072714;28;20139;-74
2021/03/09 10:59:58;;;;;;;40.40;25.30;;;5.90;91.50;;;;;;5071721;28;20374;-74
2021/03/09 11:02:24;;;;;;;46.03;26.37;;;5.80;91.50;;;;;;5072054;28;20474;-74
2021/03/09 11:04:50;;;;;;;42.97;26.43;;;5.80;91.60;;;;;;5072049;28;20055;-74
2021/03/09 11:07:15;;;;;;;48.07;29.17;;;5.80;91.70;;;;;;5071684;28;20048;-74
2021/03/09 11:09:42;;;;;;;41.50;25.93;;;5.70;91.60;;;;;;5072370;28;20053;-74
2021/03/09 11:12:08;;;;;;;43.77;26.10;;;5.70;91.50;;;;;;5072532;28;20633;-75
2021/03/09 11:14:34;;;;;;;43.03;25.93;;;5.70;91.60;;;;;;5071799;28;20297;-75
2021/03/09 11:16:59;;;;;;;38.23;24.90;;;5.70;91.70;;;;;;5071426;28;20076;-73
2021/03/09 11:19:25;;;;;;;44.80;27.57;;;5.80;91.70;;;;;;5070905;28;20045;-73
2021/03/09 11:21:50;;;;;;;38.40;26.03;;;5.80;91.60;;;;;;5071942;28;20481;-73
2021/03/09 11:24:16;;;;;;;34.30;23.50;;;5.80;91.50;;;;;;5071687;28;20048;-72
2021/03/09 11:26:42;;;;;;;32.07;23.47;;;5.80;91.50;;;;;;5086732;28;20056;-72
2021/03/09 11:29:08;;;;;;;37.10;23.77;;;5.70;91.40;;;;;;5071734;28;20044;-72
2021/03/09 11:31:33;;;;;;;38.33;25.03;;;5.70;91.40;;;;;;5071936;28;20051;-72
2021/03/09 11:33:59;;;;;;;39.03;23.90;;;5.70;91.40;;;;;;5070778;28;20135;-73
2021/03/09 11:36:25;;;;;;;35.47;22.67;;;5.70;91.50;;;;;;5071841;28;20060;-74
2021/03/09 11:38:51;;;;;;;33.43;23.33;;;5.70;91.40;;;;;;5071507;28;20051;-72
2021/03/09 11:41:19;;;;;;;38.70;24.80;;;5.80;91.20;;;;;;5070333;28;20048;-73
2021/03/09 11:43:45;;;;;;;36.50;24.40;;;5.70;91.20;;;;;;5071535;28;20712;-72
2021/03/09 11:46:11;;;;;;;43.00;26.77;;;5.70;91.30;;;;;;5071449;28;20306;-72
2021/03/09 11:48:38;;;;;;;41.27;25.80;;;5.80;91.40;;;;;;5070998;28;20380;-74
2021/03/09 11:51:04;;;;;;;41.13;27.23;;;5.70;91.40;;;;;;5071344;28;20761;-75
2021/03/09 11:53:29;;;;;;;38.90;25.57;;;5.80;91.30;;;;;;5071878;28;20302;-74
2021/03/09 11:55:56;;;;;;;41.83;25.57;;;5.80;91.30;;;;;;5070812;28;20754;-74
2021/03/09 11:58:22;;;;;;;35.03;23.73;;;5.80;91.10;;;;;;5071544;28;20068;-74
2021/03/09 12:00:47;;;;;;;36.90;24.47;;;5.80;91.10;;;;;;5070733;28;20295;-73
2021/03/09 12:03:13;;;;;;;36.47;24.30;;;5.80;91.10;;;;;;5070080;28;20087;-73
2021/03/09 12:05:39;;;;;;;37.80;25.00;;;5.90;91.00;;;;;;5071472;28;20044;-72
2021/03/09 12:08:05;;;;;;;41.93;25.90;;;5.90;90.90;;;;;;5071264;28;20052;-74
2021/03/09 12:10:32;;;;;;;39.20;26.30;;;5.90;90.80;;;;;;5070914;28;20440;-81
2021/03/09 12:12:58;;;;;;;38.40;26.03;;;5.80;90.80;;;;;;5071112;28;20290;-74
2021/03/09 12:15:23;;;;;;;30.47;21.10;;;5.80;90.80;;;;;;5071074;28;20301;-74
2021/03/09 12:17:49;;;;;;;27.83;21.40;;;5.70;90.80;;;;;;5070114;28;20055;-76
2021/03/09 12:20:15;;;;;;;23.53;18.03;;;5.80;90.80;;;;;;5071226;28;20044;-75
2021/03/09 12:22:40;;;;;;;27.13;19.37;;;5.80;90.80;;;;;;5070705;28;20072;-75
2021/03/09 12:25:06;;;;;;;18.63;15.57;;;5.80;90.70;;;;;;5071230;28;20048;-73
2021/03/09 12:27:35;;;;;;;20.30;16.77;;;5.90;90.60;;;;;;5071511;28;20053;-75
2021/03/09 12:30:02;;;;;;;19.83;16.30;;;5.90;90.50;;;;;;5070517;28;20305;-79
2021/03/09 12:32:28;;;;;;;21.60;16.70;;;5.90;90.40;;;;;;5071246;28;20621;-75
2021/03/09 12:34:53;;;;;;;18.13;15.67;;;6.00;90.30;;;;;;5071140;28;20299;-76
2021/03/09 12:37:19;;;;;;;19.90;15.90;;;6.00;90.20;;;;;;5070671;28;20052;-76
2021/03/09 12:39:44;;;;;;;20.27;16.77;;;6.10;90.10;;;;;;5070973;28;20080;-75
2021/03/09 12:42:10;;;;;;;23.37;17.97;;;6.10;90.00;;;;;;5071107;28;20507;-74